sensor_id;sensor_type;location;lat;lon;timestamp;P1;durP1;ratioP1;P2;durP2;ratioP2
60935;SDS011;46804;51.786;19.520;2022-09-09T00:00:25;16.00;;;7.53;;
60935;SDS011;46804;51.786;19.520;2022-09-09T00:09:17;16.30;;;7.43;;
60935;SDS011;46804;51.786;19.520;2022-09-09T00:17:45;13.87;;;8.17;;
60935;SDS011;46804;51.786;19.520;2022-09-09T00:30:23;12.70;;;8.57;;
60935;SDS011;46804;51.786;19.520;2022-09-09T00:34:25;13.13;;;8.50;;
60935;SDS011;46804;51.786;19.520;2022-09-09T00:38:31;11.70;;;7.35;;
60935;SDS011;46804;51.786;19.520;2022-09-09T00:42:42;11.23;;;7.53;;
60935;SDS011;46804;51.786;19.520;2022-09-09T00:46:59;13.32;;;8.48;;
60935;SDS011;46804;51.786;19.520;2022-09-09T00:51:11;14.32;;;7.82;;
60935;SDS011;46804;51.786;19.520;2022-09-09T00:59:47;17.45;;;7.45;;
60935;SDS011;46804;51.786;19.520;2022-09-09T01:03:54;17.02;;;8.10;;
60935;SDS011;46804;51.786;19.520;2022-09-09T01:07:55;14.07;;;8.38;;
60935;SDS011;46804;51.786;19.520;2022-09-09T01:16:07;12.00;;;8.00;;
60935;SDS011;46804;51.786;19.520;2022-09-09T01:20:23;13.55;;;8.50;;
60935;SDS011;46804;51.786;19.520;2022-09-09T01:24:30;14.13;;;8.88;;
60935;SDS011;46804;51.786;19.520;2022-09-09T01:28:39;13.20;;;8.10;;
60935;SDS011;46804;51.786;19.520;2022-09-09T01:32:42;14.30;;;7.65;;
60935;SDS011;46804;51.786;19.520;2022-09-09T01:40:52;13.88;;;8.60;;
60935;SDS011;46804;51.786;19.520;2022-09-09T01:44:53;14.35;;;8.07;;
60935;SDS011;46804;51.786;19.520;2022-09-09T01:48:55;15.38;;;9.23;;
60935;SDS011;46804;51.786;19.520;2022-09-09T01:52:58;20.23;;;10.30;;
60935;SDS011;46804;51.786;19.520;2022-09-09T01:57:08;17.42;;;9.95;;
60935;SDS011;46804;51.786;19.520;2022-09-09T02:05:45;19.35;;;10.00;;
60935;SDS011;46804;51.786;19.520;2022-09-09T02:09:57;19.90;;;8.95;;
60935;SDS011;46804;51.786;19.520;2022-09-09T02:18:10;17.20;;;10.18;;
60935;SDS011;46804;51.786;19.520;2022-09-09T02:22:13;21.85;;;11.25;;
60935;SDS011;46804;51.786;19.520;2022-09-09T02:26:17;16.35;;;9.65;;
60935;SDS011;46804;51.786;19.520;2022-09-09T02:30:21;22.88;;;11.13;;
60935;SDS011;46804;51.786;19.520;2022-09-09T02:34:22;18.45;;;11.07;;
60935;SDS011;46804;51.786;19.520;2022-09-09T02:38:25;22.52;;;11.40;;
60935;SDS011;46804;51.786;19.520;2022-09-09T02:42:28;21.38;;;12.43;;
60935;SDS011;46804;51.786;19.520;2022-09-09T02:46:36;21.25;;;11.90;;
60935;SDS011;46804;51.786;19.520;2022-09-09T02:51:08;23.67;;;11.48;;
60935;SDS011;46804;51.786;19.520;2022-09-09T02:59:25;21.58;;;12.25;;
60935;SDS011;46804;51.786;19.520;2022-09-09T03:03:26;28.67;;;14.35;;
60935;SDS011;46804;51.786;19.520;2022-09-09T03:07:27;29.17;;;15.80;;
60935;SDS011;46804;51.786;19.520;2022-09-09T03:11:28;24.55;;;15.20;;
60935;SDS011;46804;51.786;19.520;2022-09-09T03:15:28;25.58;;;15.88;;
60935;SDS011;46804;51.786;19.520;2022-09-09T03:19:31;29.17;;;15.27;;
60935;SDS011;46804;51.786;19.520;2022-09-09T03:23:32;26.58;;;14.85;;
60935;SDS011;46804;51.786;19.520;2022-09-09T03:27:32;23.77;;;14.38;;
60935;SDS011;46804;51.786;19.520;2022-09-09T03:31:33;25.15;;;14.98;;
60935;SDS011;46804;51.786;19.520;2022-09-09T03:35:34;27.85;;;15.40;;
60935;SDS011;46804;51.786;19.520;2022-09-09T03:39:34;24.58;;;15.35;;
60935;SDS011;46804;51.786;19.520;2022-09-09T03:43:35;28.55;;;15.15;;
60935;SDS011;46804;51.786;19.520;2022-09-09T03:47:36;27.05;;;16.08;;
60935;SDS011;46804;51.786;19.520;2022-09-09T03:51:37;26.45;;;16.33;;
60935;SDS011;46804;51.786;19.520;2022-09-09T03:55:38;30.70;;;18.17;;
60935;SDS011;46804;51.786;19.520;2022-09-09T03:59:39;31.52;;;18.65;;
60935;SDS011;46804;51.786;19.520;2022-09-09T04:03:40;28.02;;;17.33;;
60935;SDS011;46804;51.786;19.520;2022-09-09T04:07:40;30.30;;;17.38;;
60935;SDS011;46804;51.786;19.520;2022-09-09T04:11:41;29.90;;;16.73;;
60935;SDS011;46804;51.786;19.520;2022-09-09T04:15:41;30.38;;;17.45;;
60935;SDS011;46804;51.786;19.520;2022-09-09T04:19:43;39.03;;;17.25;;
60935;SDS011;46804;51.786;19.520;2022-09-09T04:23:44;31.88;;;16.83;;
60935;SDS011;46804;51.786;19.520;2022-09-09T04:27:44;34.58;;;17.15;;
60935;SDS011;46804;51.786;19.520;2022-09-09T04:31:45;31.48;;;17.25;;
60935;SDS011;46804;51.786;19.520;2022-09-09T04:35:46;39.88;;;18.00;;
60935;SDS011;46804;51.786;19.520;2022-09-09T04:39:48;33.80;;;17.97;;
60935;SDS011;46804;51.786;19.520;2022-09-09T04:43:49;30.83;;;18.02;;
60935;SDS011;46804;51.786;19.520;2022-09-09T04:47:50;30.00;;;16.05;;
60935;SDS011;46804;51.786;19.520;2022-09-09T04:51:50;44.78;;;18.42;;
60935;SDS011;46804;51.786;19.520;2022-09-09T04:56:01;45.53;;;17.70;;
60935;SDS011;46804;51.786;19.520;2022-09-09T05:00:06;38.63;;;17.20;;
60935;SDS011;46804;51.786;19.520;2022-09-09T05:04:07;39.70;;;18.08;;
60935;SDS011;46804;51.786;19.520;2022-09-09T05:08:09;33.42;;;17.70;;
60935;SDS011;46804;51.786;19.520;2022-09-09T05:12:09;36.97;;;17.85;;
60935;SDS011;46804;51.786;19.520;2022-09-09T05:16:10;51.88;;;17.80;;
60935;SDS011;46804;51.786;19.520;2022-09-09T05:20:11;39.03;;;17.80;;
60935;SDS011;46804;51.786;19.520;2022-09-09T05:24:12;41.58;;;18.90;;
60935;SDS011;46804;51.786;19.520;2022-09-09T05:28:12;34.83;;;17.65;;
60935;SDS011;46804;51.786;19.520;2022-09-09T05:32:13;38.25;;;16.48;;
60935;SDS011;46804;51.786;19.520;2022-09-09T05:36:16;72.47;;;19.33;;
60935;SDS011;46804;51.786;19.520;2022-09-09T05:40:18;60.47;;;17.73;;
60935;SDS011;46804;51.786;19.520;2022-09-09T05:44:19;42.67;;;17.30;;
60935;SDS011;46804;51.786;19.520;2022-09-09T05:48:19;36.67;;;17.52;;
60935;SDS011;46804;51.786;19.520;2022-09-09T05:52:20;39.22;;;16.85;;
60935;SDS011;46804;51.786;19.520;2022-09-09T05:56:22;51.28;;;17.80;;
60935;SDS011;46804;51.786;19.520;2022-09-09T06:00:30;60.45;;;17.98;;
60935;SDS011;46804;51.786;19.520;2022-09-09T06:04:32;58.42;;;16.20;;
60935;SDS011;46804;51.786;19.520;2022-09-09T06:08:33;47.45;;;17.60;;
60935;SDS011;46804;51.786;19.520;2022-09-09T06:12:37;45.97;;;16.52;;
60935;SDS011;46804;51.786;19.520;2022-09-09T06:16:37;44.33;;;16.80;;
60935;SDS011;46804;51.786;19.520;2022-09-09T06:20:38;43.72;;;17.00;;
60935;SDS011;46804;51.786;19.520;2022-09-09T06:24:39;39.17;;;17.02;;
60935;SDS011;46804;51.786;19.520;2022-09-09T06:28:39;37.53;;;15.80;;
60935;SDS011;46804;51.786;19.520;2022-09-09T06:32:42;43.30;;;17.02;;
60935;SDS011;46804;51.786;19.520;2022-09-09T06:36:43;36.38;;;17.42;;
60935;SDS011;46804;51.786;19.520;2022-09-09T06:40:50;41.85;;;17.10;;
60935;SDS011;46804;51.786;19.520;2022-09-09T06:44:58;38.83;;;16.27;;
60935;SDS011;46804;51.786;19.520;2022-09-09T06:48:59;33.78;;;16.08;;
60935;SDS011;46804;51.786;19.520;2022-09-09T06:53:00;38.90;;;16.83;;
60935;SDS011;46804;51.786;19.520;2022-09-09T06:57:00;66.20;;;30.17;;
60935;SDS011;46804;51.786;19.520;2022-09-09T07:01:02;144.82;;;56.85;;
60935;SDS011;46804;51.786;19.520;2022-09-09T07:05:06;124.80;;;50.25;;
60935;SDS011;46804;51.786;19.520;2022-09-09T07:09:17;117.82;;;42.55;;
60935;SDS011;46804;51.786;19.520;2022-09-09T07:13:26;37.33;;;17.63;;
60935;SDS011;46804;51.786;19.520;2022-09-09T07:17:27;37.60;;;18.00;;
60935;SDS011;46804;51.786;19.520;2022-09-09T07:21:29;33.03;;;18.17;;
60935;SDS011;46804;51.786;19.520;2022-09-09T07:25:31;36.92;;;20.33;;
60935;SDS011;46804;51.786;19.520;2022-09-09T07:29:32;30.30;;;15.82;;
60935;SDS011;46804;51.786;19.520;2022-09-09T07:33:34;52.65;;;29.27;;
60935;SDS011;46804;51.786;19.520;2022-09-09T07:37:36;40.47;;;25.77;;
60935;SDS011;46804;51.786;19.520;2022-09-09T07:41:39;22.57;;;15.57;;
60935;SDS011;46804;51.786;19.520;2022-09-09T07:45:46;26.15;;;14.32;;
60935;SDS011;46804;51.786;19.520;2022-09-09T07:49:47;27.60;;;14.88;;
60935;SDS011;46804;51.786;19.520;2022-09-09T07:53:54;25.92;;;14.77;;
60935;SDS011;46804;51.786;19.520;2022-09-09T07:57:58;17.98;;;11.80;;
60935;SDS011;46804;51.786;19.520;2022-09-09T08:01:58;19.23;;;12.77;;
60935;SDS011;46804;51.786;19.520;2022-09-09T08:06:00;22.52;;;13.15;;
60935;SDS011;46804;51.786;19.520;2022-09-09T08:10:02;21.00;;;13.38;;
60935;SDS011;46804;51.786;19.520;2022-09-09T08:14:04;18.95;;;12.38;;
60935;SDS011;46804;51.786;19.520;2022-09-09T08:18:04;24.17;;;13.00;;
60935;SDS011;46804;51.786;19.520;2022-09-09T08:22:06;18.48;;;12.27;;
60935;SDS011;46804;51.786;19.520;2022-09-09T08:26:12;19.65;;;12.18;;
60935;SDS011;46804;51.786;19.520;2022-09-09T08:30:15;21.88;;;11.98;;
60935;SDS011;46804;51.786;19.520;2022-09-09T08:34:15;21.25;;;11.40;;
60935;SDS011;46804;51.786;19.520;2022-09-09T08:38:17;16.80;;;10.52;;
60935;SDS011;46804;51.786;19.520;2022-09-09T08:46:38;13.25;;;9.52;;
60935;SDS011;46804;51.786;19.520;2022-09-09T08:50:47;12.75;;;8.77;;
60935;SDS011;46804;51.786;19.520;2022-09-09T08:54:50;13.38;;;7.40;;
60935;SDS011;46804;51.786;19.520;2022-09-09T08:58:53;10.30;;;7.65;;
60935;SDS011;46804;51.786;19.520;2022-09-09T09:03:06;8.87;;;6.40;;
60935;SDS011;46804;51.786;19.520;2022-09-09T09:07:24;9.10;;;5.78;;
60935;SDS011;46804;51.786;19.520;2022-09-09T09:11:37;10.57;;;5.90;;
60935;SDS011;46804;51.786;19.520;2022-09-09T09:15:38;8.73;;;5.90;;
60935;SDS011;46804;51.786;19.520;2022-09-09T09:19:42;8.27;;;5.20;;
60935;SDS011;46804;51.786;19.520;2022-09-09T09:23:53;8.63;;;5.97;;
60935;SDS011;46804;51.786;19.520;2022-09-09T09:32:07;10.23;;;6.30;;
60935;SDS011;46804;51.786;19.520;2022-09-09T09:36:13;8.77;;;5.78;;
60935;SDS011;46804;51.786;19.520;2022-09-09T09:40:17;6.72;;;4.55;;
60935;SDS011;46804;51.786;19.520;2022-09-09T09:44:37;6.47;;;3.88;;
60935;SDS011;46804;51.786;19.520;2022-09-09T09:48:38;6.28;;;4.35;;
60935;SDS011;46804;51.786;19.520;2022-09-09T09:52:38;5.30;;;3.60;;
60935;SDS011;46804;51.786;19.520;2022-09-09T09:56:42;7.97;;;4.47;;
60935;SDS011;46804;51.786;19.520;2022-09-09T10:00:47;8.65;;;4.82;;
60935;SDS011;46804;51.786;19.520;2022-09-09T10:04:59;6.70;;;4.47;;
60935;SDS011;46804;51.786;19.520;2022-09-09T10:09:20;9.18;;;5.07;;
60935;SDS011;46804;51.786;19.520;2022-09-09T10:22:19;13.93;;;6.40;;
60935;SDS011;46804;51.786;19.520;2022-09-09T10:26:29;7.50;;;5.05;;
60935;SDS011;46804;51.786;19.520;2022-09-09T10:30:42;6.78;;;4.93;;
60935;SDS011;46804;51.786;19.520;2022-09-09T10:35:04;9.35;;;5.68;;
60935;SDS011;46804;51.786;19.520;2022-09-09T10:39:18;7.22;;;4.35;;
60935;SDS011;46804;51.786;19.520;2022-09-09T10:43:57;7.38;;;5.03;;
60935;SDS011;46804;51.786;19.520;2022-09-09T10:56:42;6.22;;;4.40;;
60935;SDS011;46804;51.786;19.520;2022-09-09T11:00:49;5.50;;;4.18;;
60935;SDS011;46804;51.786;19.520;2022-09-09T11:05:02;6.78;;;4.10;;
60935;SDS011;46804;51.786;19.520;2022-09-09T11:09:05;6.97;;;4.28;;
60935;SDS011;46804;51.786;19.520;2022-09-09T11:13:18;7.90;;;4.18;;
60935;SDS011;46804;51.786;19.520;2022-09-09T11:17:24;5.18;;;3.70;;
60935;SDS011;46804;51.786;19.520;2022-09-09T11:21:30;7.15;;;4.35;;
60935;SDS011;46804;51.786;19.520;2022-09-09T11:25:37;6.97;;;5.00;;
60935;SDS011;46804;51.786;19.520;2022-09-09T11:30:02;6.20;;;3.92;;
60935;SDS011;46804;51.786;19.520;2022-09-09T11:34:09;6.28;;;3.58;;
60935;SDS011;46804;51.786;19.520;2022-09-09T11:38:27;5.30;;;3.70;;
60935;SDS011;46804;51.786;19.520;2022-09-09T11:42:29;5.25;;;3.40;;
60935;SDS011;46804;51.786;19.520;2022-09-09T11:46:34;6.00;;;3.80;;
60935;SDS011;46804;51.786;19.520;2022-09-09T11:50:38;4.03;;;2.83;;
60935;SDS011;46804;51.786;19.520;2022-09-09T11:54:46;3.73;;;2.67;;
60935;SDS011;46804;51.786;19.520;2022-09-09T11:58:56;4.15;;;2.78;;
60935;SDS011;46804;51.786;19.520;2022-09-09T12:02:59;5.55;;;3.30;;
60935;SDS011;46804;51.786;19.520;2022-09-09T12:07:04;5.85;;;3.10;;
60935;SDS011;46804;51.786;19.520;2022-09-09T12:11:08;4.72;;;2.65;;
60935;SDS011;46804;51.786;19.520;2022-09-09T12:27:42;4.15;;;2.58;;
60935;SDS011;46804;51.786;19.520;2022-09-09T12:32:07;5.40;;;2.65;;
60935;SDS011;46804;51.786;19.520;2022-09-09T12:36:12;4.25;;;2.40;;
60935;SDS011;46804;51.786;19.520;2022-09-09T12:44:27;4.22;;;2.22;;
60935;SDS011;46804;51.786;19.520;2022-09-09T12:52:37;5.70;;;2.10;;
60935;SDS011;46804;51.786;19.520;2022-09-09T12:56:39;6.00;;;2.50;;
60935;SDS011;46804;51.786;19.520;2022-09-09T13:00:48;4.70;;;2.47;;
60935;SDS011;46804;51.786;19.520;2022-09-09T13:04:51;3.17;;;2.42;;
60935;SDS011;46804;51.786;19.520;2022-09-09T13:08:52;3.53;;;2.38;;
60935;SDS011;46804;51.786;19.520;2022-09-09T13:12:54;4.50;;;2.60;;
60935;SDS011;46804;51.786;19.520;2022-09-09T13:16:55;4.40;;;2.45;;
60935;SDS011;46804;51.786;19.520;2022-09-09T13:20:58;8.30;;;2.85;;
60935;SDS011;46804;51.786;19.520;2022-09-09T13:25:00;4.50;;;2.47;;
60935;SDS011;46804;51.786;19.520;2022-09-09T13:29:14;3.25;;;2.33;;
60935;SDS011;46804;51.786;19.520;2022-09-09T13:33:20;4.30;;;2.05;;
60935;SDS011;46804;51.786;19.520;2022-09-09T13:37:33;3.25;;;2.10;;
60935;SDS011;46804;51.786;19.520;2022-09-09T13:41:36;4.88;;;2.50;;
60935;SDS011;46804;51.786;19.520;2022-09-09T13:45:51;4.13;;;2.75;;
60935;SDS011;46804;51.786;19.520;2022-09-09T13:49:53;5.47;;;2.40;;
60935;SDS011;46804;51.786;19.520;2022-09-09T13:53:54;4.25;;;2.17;;
60935;SDS011;46804;51.786;19.520;2022-09-09T13:57:58;2.80;;;1.90;;
60935;SDS011;46804;51.786;19.520;2022-09-09T14:02:01;5.70;;;2.30;;
60935;SDS011;46804;51.786;19.520;2022-09-09T14:06:01;5.60;;;2.22;;
60935;SDS011;46804;51.786;19.520;2022-09-09T14:10:02;4.00;;;2.42;;
60935;SDS011;46804;51.786;19.520;2022-09-09T14:14:03;4.38;;;2.40;;
60935;SDS011;46804;51.786;19.520;2022-09-09T14:18:03;4.63;;;2.50;;
60935;SDS011;46804;51.786;19.520;2022-09-09T14:22:04;5.30;;;3.00;;
60935;SDS011;46804;51.786;19.520;2022-09-09T14:26:05;5.10;;;2.80;;
60935;SDS011;46804;51.786;19.520;2022-09-09T14:30:06;4.55;;;2.60;;
60935;SDS011;46804;51.786;19.520;2022-09-09T14:34:07;4.88;;;2.38;;
60935;SDS011;46804;51.786;19.520;2022-09-09T14:38:11;6.20;;;2.50;;
60935;SDS011;46804;51.786;19.520;2022-09-09T14:42:11;4.43;;;2.42;;
60935;SDS011;46804;51.786;19.520;2022-09-09T14:46:13;4.82;;;2.55;;
60935;SDS011;46804;51.786;19.520;2022-09-09T14:50:15;5.30;;;2.42;;
60935;SDS011;46804;51.786;19.520;2022-09-09T14:54:16;5.95;;;2.47;;
60935;SDS011;46804;51.786;19.520;2022-09-09T14:58:16;6.25;;;3.20;;
60935;SDS011;46804;51.786;19.520;2022-09-09T15:02:17;5.00;;;2.87;;
60935;SDS011;46804;51.786;19.520;2022-09-09T15:06:18;5.50;;;2.80;;
60935;SDS011;46804;51.786;19.520;2022-09-09T15:10:20;6.55;;;3.22;;
60935;SDS011;46804;51.786;19.520;2022-09-09T15:14:21;7.18;;;3.38;;
60935;SDS011;46804;51.786;19.520;2022-09-09T15:18:21;5.63;;;2.80;;
60935;SDS011;46804;51.786;19.520;2022-09-09T15:22:23;6.35;;;2.90;;
60935;SDS011;46804;51.786;19.520;2022-09-09T15:26:24;9.38;;;4.68;;
60935;SDS011;46804;51.786;19.520;2022-09-09T15:30:26;5.88;;;2.95;;
60935;SDS011;46804;51.786;19.520;2022-09-09T15:34:26;5.72;;;3.00;;
60935;SDS011;46804;51.786;19.520;2022-09-09T15:38:27;6.03;;;2.80;;
60935;SDS011;46804;51.786;19.520;2022-09-09T15:42:27;5.78;;;2.97;;
60935;SDS011;46804;51.786;19.520;2022-09-09T15:46:35;4.20;;;3.13;;
60935;SDS011;46804;51.786;19.520;2022-09-09T15:50:37;6.28;;;3.17;;
60935;SDS011;46804;51.786;19.520;2022-09-09T15:54:38;5.30;;;3.17;;
60935;SDS011;46804;51.786;19.520;2022-09-09T15:58:39;6.78;;;3.00;;
60935;SDS011;46804;51.786;19.520;2022-09-09T16:02:39;6.20;;;3.90;;
60935;SDS011;46804;51.786;19.520;2022-09-09T16:06:40;6.47;;;3.45;;
60935;SDS011;46804;51.786;19.520;2022-09-09T16:10:40;5.85;;;3.60;;
60935;SDS011;46804;51.786;19.520;2022-09-09T16:14:41;8.90;;;3.85;;
60935;SDS011;46804;51.786;19.520;2022-09-09T16:18:42;6.47;;;3.97;;
60935;SDS011;46804;51.786;19.520;2022-09-09T16:22:45;7.57;;;3.60;;
60935;SDS011;46804;51.786;19.520;2022-09-09T16:26:47;5.43;;;3.60;;
60935;SDS011;46804;51.786;19.520;2022-09-09T16:30:49;4.82;;;3.33;;
60935;SDS011;46804;51.786;19.520;2022-09-09T16:34:50;5.10;;;3.67;;
60935;SDS011;46804;51.786;19.520;2022-09-09T16:38:54;6.43;;;3.90;;
60935;SDS011;46804;51.786;19.520;2022-09-09T16:42:57;5.68;;;3.85;;
60935;SDS011;46804;51.786;19.520;2022-09-09T16:46:58;6.68;;;3.92;;
60935;SDS011;46804;51.786;19.520;2022-09-09T16:51:05;5.75;;;3.97;;
60935;SDS011;46804;51.786;19.520;2022-09-09T16:55:08;7.47;;;4.43;;
60935;SDS011;46804;51.786;19.520;2022-09-09T16:59:13;9.25;;;5.05;;
60935;SDS011;46804;51.786;19.520;2022-09-09T17:03:15;9.88;;;6.10;;
60935;SDS011;46804;51.786;19.520;2022-09-09T17:07:16;8.35;;;5.75;;
60935;SDS011;46804;51.786;19.520;2022-09-09T17:11:18;8.73;;;6.00;;
60935;SDS011;46804;51.786;19.520;2022-09-09T17:15:19;10.15;;;6.40;;
60935;SDS011;46804;51.786;19.520;2022-09-09T17:19:21;9.50;;;6.53;;
60935;SDS011;46804;51.786;19.520;2022-09-09T17:23:21;11.93;;;6.53;;
60935;SDS011;46804;51.786;19.520;2022-09-09T17:27:22;9.82;;;6.72;;
60935;SDS011;46804;51.786;19.520;2022-09-09T17:31:23;11.10;;;7.13;;
60935;SDS011;46804;51.786;19.520;2022-09-09T17:35:25;9.75;;;7.57;;
60935;SDS011;46804;51.786;19.520;2022-09-09T17:39:27;9.93;;;7.22;;
60935;SDS011;46804;51.786;19.520;2022-09-09T17:43:27;11.57;;;7.85;;
60935;SDS011;46804;51.786;19.520;2022-09-09T17:47:28;14.52;;;8.18;;
60935;SDS011;46804;51.786;19.520;2022-09-09T17:51:31;15.40;;;7.43;;
60935;SDS011;46804;51.786;19.520;2022-09-09T17:55:32;14.30;;;9.32;;
60935;SDS011;46804;51.786;19.520;2022-09-09T17:59:33;14.65;;;9.50;;
60935;SDS011;46804;51.786;19.520;2022-09-09T18:03:34;15.73;;;8.95;;
60935;SDS011;46804;51.786;19.520;2022-09-09T18:07:42;13.80;;;8.65;;
60935;SDS011;46804;51.786;19.520;2022-09-09T18:11:44;13.68;;;9.38;;
60935;SDS011;46804;51.786;19.520;2022-09-09T18:15:45;18.77;;;11.43;;
60935;SDS011;46804;51.786;19.520;2022-09-09T18:19:47;17.33;;;11.48;;
60935;SDS011;46804;51.786;19.520;2022-09-09T18:23:48;16.92;;;11.43;;
60935;SDS011;46804;51.786;19.520;2022-09-09T18:27:51;19.47;;;12.10;;
60935;SDS011;46804;51.786;19.520;2022-09-09T18:31:53;19.60;;;12.38;;
60935;SDS011;46804;51.786;19.520;2022-09-09T18:35:54;21.42;;;13.02;;
60935;SDS011;46804;51.786;19.520;2022-09-09T18:39:55;20.52;;;13.02;;
60935;SDS011;46804;51.786;19.520;2022-09-09T18:43:57;24.48;;;13.98;;
60935;SDS011;46804;51.786;19.520;2022-09-09T18:47:59;26.15;;;14.93;;
60935;SDS011;46804;51.786;19.520;2022-09-09T18:52:00;25.83;;;14.35;;
60935;SDS011;46804;51.786;19.520;2022-09-09T18:56:04;22.87;;;13.67;;
60935;SDS011;46804;51.786;19.520;2022-09-09T19:00:07;28.80;;;15.90;;
60935;SDS011;46804;51.786;19.520;2022-09-09T19:04:09;25.15;;;14.75;;
60935;SDS011;46804;51.786;19.520;2022-09-09T19:08:11;26.42;;;15.13;;
60935;SDS011;46804;51.786;19.520;2022-09-09T19:12:12;27.88;;;15.00;;
60935;SDS011;46804;51.786;19.520;2022-09-09T19:16:13;26.52;;;15.85;;
60935;SDS011;46804;51.786;19.520;2022-09-09T19:20:13;25.80;;;16.13;;
60935;SDS011;46804;51.786;19.520;2022-09-09T19:24:16;23.45;;;14.60;;
60935;SDS011;46804;51.786;19.520;2022-09-09T19:28:19;28.90;;;15.68;;
60935;SDS011;46804;51.786;19.520;2022-09-09T19:32:19;24.73;;;14.80;;
60935;SDS011;46804;51.786;19.520;2022-09-09T19:36:21;32.50;;;16.42;;
60935;SDS011;46804;51.786;19.520;2022-09-09T19:40:22;25.35;;;14.88;;
60935;SDS011;46804;51.786;19.520;2022-09-09T19:44:23;24.73;;;15.43;;
60935;SDS011;46804;51.786;19.520;2022-09-09T19:48:24;26.42;;;15.77;;
60935;SDS011;46804;51.786;19.520;2022-09-09T19:52:26;27.98;;;16.40;;
60935;SDS011;46804;51.786;19.520;2022-09-09T19:56:27;30.17;;;16.20;;
60935;SDS011;46804;51.786;19.520;2022-09-09T20:00:28;28.40;;;16.33;;
60935;SDS011;46804;51.786;19.520;2022-09-09T20:04:29;31.23;;;16.92;;
60935;SDS011;46804;51.786;19.520;2022-09-09T20:08:30;28.85;;;15.93;;
60935;SDS011;46804;51.786;19.520;2022-09-09T20:12:31;29.17;;;17.25;;
60935;SDS011;46804;51.786;19.520;2022-09-09T20:16:32;32.80;;;18.02;;
60935;SDS011;46804;51.786;19.520;2022-09-09T20:20:33;28.73;;;17.23;;
60935;SDS011;46804;51.786;19.520;2022-09-09T20:24:34;30.42;;;18.50;;
60935;SDS011;46804;51.786;19.520;2022-09-09T20:28:36;33.83;;;18.25;;
60935;SDS011;46804;51.786;19.520;2022-09-09T20:32:37;37.88;;;19.33;;
60935;SDS011;46804;51.786;19.520;2022-09-09T20:36:38;38.08;;;21.15;;
60935;SDS011;46804;51.786;19.520;2022-09-09T20:40:40;39.63;;;20.85;;
60935;SDS011;46804;51.786;19.520;2022-09-09T20:44:41;39.17;;;21.80;;
60935;SDS011;46804;51.786;19.520;2022-09-09T20:48:41;37.17;;;20.05;;
60935;SDS011;46804;51.786;19.520;2022-09-09T20:52:43;37.85;;;19.98;;
60935;SDS011;46804;51.786;19.520;2022-09-09T20:56:44;37.58;;;21.42;;
60935;SDS011;46804;51.786;19.520;2022-09-09T21:00:45;41.28;;;21.90;;
60935;SDS011;46804;51.786;19.520;2022-09-09T21:04:46;36.25;;;20.83;;
60935;SDS011;46804;51.786;19.520;2022-09-09T21:08:47;44.45;;;20.55;;
60935;SDS011;46804;51.786;19.520;2022-09-09T21:12:48;41.65;;;20.88;;
60935;SDS011;46804;51.786;19.520;2022-09-09T21:16:49;42.58;;;22.55;;
60935;SDS011;46804;51.786;19.520;2022-09-09T21:20:49;49.38;;;23.50;;
60935;SDS011;46804;51.786;19.520;2022-09-09T21:24:50;48.47;;;24.90;;
60935;SDS011;46804;51.786;19.520;2022-09-09T21:28:51;46.67;;;22.80;;
60935;SDS011;46804;51.786;19.520;2022-09-09T21:32:52;48.80;;;24.45;;
60935;SDS011;46804;51.786;19.520;2022-09-09T21:36:53;47.72;;;24.02;;
60935;SDS011;46804;51.786;19.520;2022-09-09T21:40:53;46.42;;;24.25;;
60935;SDS011;46804;51.786;19.520;2022-09-09T21:44:54;45.10;;;22.92;;
60935;SDS011;46804;51.786;19.520;2022-09-09T21:48:56;47.65;;;23.90;;
60935;SDS011;46804;51.786;19.520;2022-09-09T21:52:57;42.80;;;23.45;;
60935;SDS011;46804;51.786;19.520;2022-09-09T21:56:57;44.08;;;23.30;;
60935;SDS011;46804;51.786;19.520;2022-09-09T22:00:58;46.58;;;24.20;;
60935;SDS011;46804;51.786;19.520;2022-09-09T22:04:58;48.83;;;24.00;;
60935;SDS011;46804;51.786;19.520;2022-09-09T22:08:59;48.15;;;24.77;;
60935;SDS011;46804;51.786;19.520;2022-09-09T22:13:01;42.40;;;23.02;;
60935;SDS011;46804;51.786;19.520;2022-09-09T22:17:02;46.25;;;23.00;;
60935;SDS011;46804;51.786;19.520;2022-09-09T22:21:05;45.00;;;23.48;;
60935;SDS011;46804;51.786;19.520;2022-09-09T22:25:07;47.20;;;22.53;;
60935;SDS011;46804;51.786;19.520;2022-09-09T22:29:08;51.22;;;22.52;;
60935;SDS011;46804;51.786;19.520;2022-09-09T22:33:08;46.95;;;23.25;;
60935;SDS011;46804;51.786;19.520;2022-09-09T22:37:10;50.13;;;23.25;;
60935;SDS011;46804;51.786;19.520;2022-09-09T22:41:10;48.72;;;22.50;;
60935;SDS011;46804;51.786;19.520;2022-09-09T22:45:11;40.70;;;21.48;;
60935;SDS011;46804;51.786;19.520;2022-09-09T22:49:12;45.60;;;21.05;;
60935;SDS011;46804;51.786;19.520;2022-09-09T22:53:13;46.05;;;22.60;;
60935;SDS011;46804;51.786;19.520;2022-09-09T22:57:15;39.47;;;21.05;;
60935;SDS011;46804;51.786;19.520;2022-09-09T23:01:16;43.75;;;21.25;;
60935;SDS011;46804;51.786;19.520;2022-09-09T23:05:18;44.42;;;21.02;;
60935;SDS011;46804;51.786;19.520;2022-09-09T23:09:21;43.77;;;20.10;;
60935;SDS011;46804;51.786;19.520;2022-09-09T23:13:21;37.55;;;19.40;;
60935;SDS011;46804;51.786;19.520;2022-09-09T23:17:22;42.60;;;20.77;;
60935;SDS011;46804;51.786;19.520;2022-09-09T23:21:24;37.58;;;18.67;;
60935;SDS011;46804;51.786;19.520;2022-09-09T23:25:27;39.58;;;19.35;;
60935;SDS011;46804;51.786;19.520;2022-09-09T23:29:27;37.60;;;19.17;;
60935;SDS011;46804;51.786;19.520;2022-09-09T23:33:28;35.95;;;18.70;;
60935;SDS011;46804;51.786;19.520;2022-09-09T23:37:29;38.22;;;20.05;;
60935;SDS011;46804;51.786;19.520;2022-09-09T23:41:31;36.03;;;18.85;;
60935;SDS011;46804;51.786;19.520;2022-09-09T23:45:34;40.08;;;18.02;;
60935;SDS011;46804;51.786;19.520;2022-09-09T23:49:35;39.25;;;18.73;;
60935;SDS011;46804;51.786;19.520;2022-09-09T23:53:39;43.88;;;19.50;;
60935;SDS011;46804;51.786;19.520;2022-09-09T23:57:40;43.25;;;18.80;;
